createdAt,value
2022-10-21T00:00:09.733Z,19.83
2022-10-21T00:01:14.611Z,21.43
2022-10-21T00:02:15.916Z,17.30
2022-10-21T00:03:17.652Z,16.77
2022-10-21T00:04:18.969Z,21.30
2022-10-21T00:05:20.313Z,18.47
2022-10-21T00:06:21.614Z,16.00
2022-10-21T00:07:22.881Z,17.60
2022-10-21T00:08:24.572Z,19.37
2022-10-21T00:09:25.876Z,18.43
2022-10-21T00:10:27.185Z,18.97
2022-10-21T00:11:28.537Z,17.97
2022-10-21T00:12:30.017Z,21.13
2022-10-21T00:13:32.206Z,16.27
2022-10-21T00:14:33.497Z,19.87
2022-10-21T00:15:35.061Z,17.97
2022-10-21T00:16:36.456Z,20.07
2022-10-21T00:17:38.688Z,22.20
2022-10-21T00:18:41.083Z,20.33
2022-10-21T00:19:42.768Z,21.13
2022-10-21T00:20:44.084Z,21.70
2022-10-21T00:21:45.416Z,21.57
2022-10-21T00:22:47.069Z,18.00
2022-10-21T00:23:49.809Z,17.80
2022-10-21T00:24:51.122Z,20.03
2022-10-21T00:25:58.704Z,20.27
2022-10-21T00:27:00.011Z,19.83
2022-10-21T00:28:01.321Z,23.27
2022-10-21T00:29:02.652Z,18.40
2022-10-21T00:30:05.185Z,19.03
2022-10-21T00:31:10.351Z,19.17
2022-10-21T00:32:11.665Z,21.43
2022-10-21T00:33:13.413Z,18.37
2022-10-21T00:34:14.733Z,20.27
2022-10-21T00:35:16.061Z,20.97
2022-10-21T00:36:17.440Z,19.93
2022-10-21T00:37:18.803Z,20.53
2022-10-21T00:39:26.577Z,18.63
2022-10-21T00:40:27.873Z,18.73
2022-10-21T00:41:29.291Z,19.93
2022-10-21T00:42:32.639Z,21.57
2022-10-21T00:43:52.678Z,20.27
2022-10-21T00:45:06.039Z,22.50
2022-10-21T00:46:07.728Z,20.30
2022-10-21T00:47:17.761Z,22.47
2022-10-21T00:48:23.094Z,21.63
2022-10-21T00:49:29.401Z,21.87
2022-10-21T00:50:43.088Z,20.23
2022-10-21T00:51:45.599Z,22.10
2022-10-21T00:52:46.947Z,25.50
2022-10-21T00:53:49.456Z,22.83
2022-10-21T00:54:52.852Z,21.80
2022-10-21T00:55:57.225Z,21.17
2022-10-21T00:56:58.888Z,20.80
2022-10-21T00:58:01.368Z,22.50
2022-10-21T00:59:03.768Z,24.87
2022-10-21T01:00:06.043Z,21.27
2022-10-21T01:01:08.185Z,21.60
2022-10-21T01:02:09.548Z,20.47
2022-10-21T01:03:10.899Z,20.97
2022-10-21T01:04:12.305Z,19.33
2022-10-21T01:05:13.905Z,19.17
2022-10-21T01:06:15.559Z,21.00
2022-10-21T01:07:16.908Z,18.70
2022-10-21T01:08:18.951Z,19.53
2022-10-21T01:09:21.074Z,20.33
2022-10-21T01:10:22.392Z,17.90
2022-10-21T01:11:24.486Z,22.80
2022-10-21T01:12:33.739Z,23.07
2022-10-21T01:13:38.090Z,20.23
2022-10-21T01:16:18.165Z,19.67
2022-10-21T01:17:43.665Z,20.63
2022-10-21T01:18:51.560Z,22.57
2022-10-21T01:19:52.866Z,22.07
2022-10-21T01:21:00.263Z,18.27
2022-10-21T01:22:07.693Z,20.13
2022-10-21T01:23:21.234Z,18.93
2022-10-21T01:24:22.519Z,18.40
2022-10-21T01:25:43.472Z,20.23
2022-10-21T01:26:50.660Z,18.73
2022-10-21T01:28:01.896Z,18.67
2022-10-21T01:29:05.962Z,21.07
2022-10-21T01:30:16.251Z,21.27
2022-10-21T01:31:37.738Z,17.00
2022-10-21T01:32:45.025Z,18.37
2022-10-21T01:34:09.340Z,21.80
2022-10-21T01:35:21.759Z,16.07
2022-10-21T01:36:27.284Z,19.80
2022-10-21T01:37:31.345Z,19.30
2022-10-21T01:38:47.915Z,18.00
2022-10-21T01:39:54.732Z,17.70
2022-10-21T01:41:04.156Z,16.37
2022-10-21T01:42:14.820Z,17.50
2022-10-21T01:43:26.197Z,20.00
2022-10-21T01:44:30.231Z,18.37
2022-10-21T01:45:34.790Z,21.93
2022-10-21T01:46:48.886Z,18.97
2022-10-21T01:47:51.329Z,17.07
2022-10-21T01:48:54.788Z,18.10
2022-10-21T01:49:59.617Z,19.97
2022-10-21T01:51:02.154Z,20.27
2022-10-21T01:52:03.988Z,22.20
2022-10-21T01:53:07.852Z,20.23
2022-10-21T01:54:12.886Z,18.53
2022-10-21T01:55:17.704Z,18.57
2022-10-21T01:56:20.117Z,19.40
2022-10-21T01:57:22.653Z,19.47
2022-10-21T01:58:25.376Z,18.27
2022-10-21T01:59:27.876Z,19.43
2022-10-21T02:00:29.952Z,18.53
2022-10-21T02:01:32.444Z,18.23
2022-10-21T02:02:35.793Z,23.00
2022-10-21T02:03:39.047Z,17.53
2022-10-21T02:04:41.799Z,20.70
2022-10-21T02:05:43.178Z,19.00
2022-10-21T02:06:44.627Z,17.23
2022-10-21T02:07:46.062Z,19.97
2022-10-21T02:08:47.542Z,19.87
2022-10-21T02:09:48.895Z,22.10
2022-10-21T02:10:51.493Z,21.50
2022-10-21T02:11:55.550Z,18.70
2022-10-21T02:12:58.580Z,23.47
2022-10-21T02:14:06.226Z,21.50
2022-10-21T02:15:08.872Z,21.77
2022-10-21T02:16:13.136Z,17.13
2022-10-21T02:17:16.201Z,26.40
2022-10-21T02:18:19.524Z,18.23
2022-10-21T02:19:21.074Z,19.03
2022-10-21T02:20:24.192Z,19.43
2022-10-21T02:21:26.161Z,24.20
2022-10-21T02:22:28.056Z,18.60
2022-10-21T02:23:38.888Z,19.23
2022-10-21T02:24:43.007Z,19.40
2022-10-21T02:25:47.733Z,19.63
2022-10-21T02:26:49.146Z,24.77
2022-10-21T02:27:52.817Z,18.10
2022-10-21T02:28:55.469Z,17.07
2022-10-21T02:29:58.669Z,16.60
2022-10-21T02:31:05.845Z,22.27
2022-10-21T02:32:22.692Z,19.00
2022-10-21T02:33:29.892Z,18.30
2022-10-21T02:34:45.596Z,22.47
2022-10-21T02:35:46.906Z,18.83
2022-10-21T02:36:58.446Z,20.30
2022-10-21T02:38:26.194Z,20.13
2022-10-21T02:39:32.326Z,22.53
2022-10-21T02:40:36.855Z,18.20
2022-10-21T02:41:38.779Z,19.20
2022-10-21T02:42:43.225Z,21.90
2022-10-21T02:43:57.006Z,20.23
2022-10-21T02:44:59.795Z,23.57
2022-10-21T02:46:05.345Z,22.03
2022-10-21T02:47:06.699Z,22.17
2022-10-21T02:48:08.057Z,17.77
2022-10-21T02:49:09.701Z,18.57
2022-10-21T02:50:11.058Z,22.83
2022-10-21T02:51:12.723Z,19.00
2022-10-21T02:52:14.076Z,19.33
2022-10-21T02:53:15.410Z,21.03
2022-10-21T02:54:16.748Z,21.07
2022-10-21T02:55:18.055Z,23.27
2022-10-21T02:56:19.460Z,19.83
2022-10-21T02:57:20.835Z,22.03
2022-10-21T02:58:22.211Z,17.70
2022-10-21T02:59:23.616Z,18.20
2022-10-21T03:00:25.554Z,19.17
2022-10-21T03:01:28.221Z,17.50
2022-10-21T03:02:29.564Z,20.93
2022-10-21T03:03:30.921Z,21.33
2022-10-21T03:04:32.250Z,18.33
2022-10-21T03:05:33.606Z,21.00
2022-10-21T03:06:35.044Z,17.70
2022-10-21T03:07:36.658Z,16.63
2022-10-21T03:08:38.357Z,19.27
2022-10-21T03:09:39.786Z,21.53
2022-10-21T03:10:41.142Z,18.97
2022-10-21T03:11:42.404Z,18.63
2022-10-21T03:12:43.761Z,18.00
2022-10-21T03:13:45.095Z,17.47
2022-10-21T03:14:46.416Z,20.63
2022-10-21T03:15:51.352Z,20.17
2022-10-21T03:16:52.701Z,21.53
2022-10-21T03:17:54.388Z,20.47
2022-10-21T03:18:55.687Z,20.97
2022-10-21T03:19:56.991Z,16.93
2022-10-21T03:20:58.380Z,18.17
2022-10-21T03:21:59.697Z,20.33
2022-10-21T03:23:01.023Z,22.27
2022-10-21T03:24:03.792Z,19.50
2022-10-21T03:25:07.274Z,20.20
2022-10-21T03:26:08.647Z,19.50
2022-10-21T03:27:09.951Z,16.40
2022-10-21T03:28:11.299Z,20.97
2022-10-21T03:29:12.738Z,20.83
2022-10-21T03:30:14.035Z,18.20
2022-10-21T03:31:15.365Z,16.40
2022-10-21T03:32:16.730Z,19.23
2022-10-21T03:33:18.035Z,20.13
2022-10-21T03:34:19.396Z,19.43
2022-10-21T03:35:20.730Z,16.63
2022-10-21T03:36:22.059Z,22.70
2022-10-21T03:37:23.441Z,18.17
2022-10-21T03:38:24.765Z,22.63
2022-10-21T03:39:26.045Z,21.37
2022-10-21T03:40:30.507Z,19.10
2022-10-21T03:41:31.828Z,19.03
2022-10-21T03:42:33.131Z,21.50
2022-10-21T03:43:34.444Z,19.53
2022-10-21T03:44:35.742Z,16.00
2022-10-21T03:45:37.537Z,18.87
2022-10-21T03:46:39.071Z,20.50
2022-10-21T03:47:40.843Z,17.13
2022-10-21T03:48:42.120Z,18.47
2022-10-21T03:49:43.391Z,19.17
2022-10-21T03:50:44.731Z,20.03
2022-10-21T03:51:46.013Z,23.07
2022-10-21T03:52:47.373Z,21.03
2022-10-21T03:53:48.670Z,19.10
2022-10-21T03:54:49.974Z,17.77
2022-10-21T03:55:55.729Z,17.10
2022-10-21T03:56:58.041Z,18.20
2022-10-21T03:57:59.471Z,17.60
2022-10-21T03:59:00.815Z,18.63
2022-10-21T04:00:02.410Z,18.63
2022-10-21T04:01:14.123Z,15.63
2022-10-21T04:02:15.665Z,19.10
2022-10-21T04:03:16.945Z,20.23
2022-10-21T04:04:18.371Z,20.63
2022-10-21T04:05:19.808Z,16.97
2022-10-21T04:06:21.128Z,19.03
2022-10-21T04:07:22.457Z,17.53
2022-10-21T04:08:23.797Z,19.47
2022-10-21T04:09:25.173Z,20.57
2022-10-21T04:10:26.678Z,18.40
2022-10-21T04:11:27.977Z,21.03
2022-10-21T04:12:29.332Z,17.37
2022-10-21T04:13:31.361Z,18.40
2022-10-21T04:14:32.668Z,20.73
2022-10-21T04:15:33.968Z,17.70
2022-10-21T04:16:35.482Z,19.37
2022-10-21T04:17:37.341Z,20.13
2022-10-21T04:18:38.608Z,18.73
2022-10-21T04:19:39.940Z,19.30
2022-10-21T04:20:41.375Z,19.83
2022-10-21T04:21:42.670Z,18.23
2022-10-21T04:22:44.055Z,19.80
2022-10-21T04:23:45.363Z,17.23
2022-10-21T04:24:46.689Z,22.90
2022-10-21T04:25:48.050Z,19.23
2022-10-21T04:26:49.343Z,17.83
2022-10-21T04:27:50.700Z,19.27
2022-10-21T04:28:51.973Z,18.20
2022-10-21T04:29:53.269Z,17.83
2022-10-21T04:30:54.662Z,22.13
2022-10-21T04:33:02.243Z,19.87
2022-10-21T04:34:03.574Z,20.87
2022-10-21T04:35:05.087Z,18.77
2022-10-21T04:36:06.614Z,18.93
2022-10-21T04:37:08.010Z,21.97
2022-10-21T04:38:09.300Z,17.33
2022-10-21T04:39:10.666Z,20.13
2022-10-21T04:40:12.056Z,17.53
2022-10-21T04:41:13.347Z,18.17
2022-10-21T04:42:14.690Z,15.53
2022-10-21T04:43:15.998Z,17.40
2022-10-21T04:44:17.319Z,19.60
2022-10-21T04:45:18.601Z,18.40
2022-10-21T04:46:20.829Z,18.53
2022-10-21T04:47:22.111Z,16.57
2022-10-21T04:48:23.474Z,21.20
2022-10-21T04:49:24.949Z,19.57
2022-10-21T04:50:26.284Z,16.70
2022-10-21T04:51:27.807Z,16.40
2022-10-21T04:52:29.208Z,20.93
2022-10-21T04:53:30.493Z,21.27
2022-10-21T04:54:31.821Z,21.90
2022-10-21T04:55:33.180Z,19.23
2022-10-21T04:56:34.457Z,18.30
2022-10-21T04:57:35.789Z,19.70
2022-10-21T04:58:37.561Z,15.40
2022-10-21T04:59:38.898Z,19.50
2022-10-21T05:00:40.257Z,17.63
2022-10-21T05:01:41.684Z,21.80
2022-10-21T05:02:43.142Z,18.80
2022-10-21T05:03:44.498Z,18.53
2022-10-21T05:04:45.813Z,18.37
2022-10-21T05:05:50.911Z,21.07
2022-10-21T05:06:52.268Z,22.33
2022-10-21T05:07:53.577Z,18.83
2022-10-21T05:08:54.979Z,18.47
2022-10-21T05:09:56.347Z,18.87
2022-10-21T05:10:59.171Z,18.73
2022-10-21T05:12:00.569Z,17.53
2022-10-21T05:13:02.000Z,21.70
2022-10-21T05:14:03.396Z,23.63
2022-10-21T05:15:04.989Z,20.40
2022-10-21T05:16:06.533Z,21.97
2022-10-21T05:17:07.853Z,19.80
2022-10-21T05:18:09.190Z,16.30
2022-10-21T05:19:11.417Z,19.50
2022-10-21T05:20:12.776Z,17.50
2022-10-21T05:21:14.056Z,15.73
2022-10-21T05:22:15.364Z,18.37
2022-10-21T05:23:16.665Z,17.33
2022-10-21T05:24:18.338Z,15.90
2022-10-21T05:25:20.280Z,19.73
2022-10-21T05:26:21.549Z,19.93
2022-10-21T05:27:22.854Z,17.57
2022-10-21T05:28:24.225Z,15.67
2022-10-21T05:29:25.537Z,17.73
2022-10-21T05:30:27.013Z,19.77
2022-10-21T05:31:28.514Z,18.40
2022-10-21T05:32:29.837Z,16.30
2022-10-21T05:33:31.162Z,16.70
2022-10-21T05:34:32.529Z,21.77
2022-10-21T05:35:33.868Z,22.93
2022-10-21T05:36:35.253Z,18.30
2022-10-21T05:37:36.605Z,21.37
2022-10-21T05:38:37.941Z,17.60
2022-10-21T05:39:39.226Z,17.47
2022-10-21T05:40:40.556Z,17.87
2022-10-21T05:41:44.176Z,21.77
2022-10-21T05:42:49.174Z,18.80
2022-10-21T05:43:50.468Z,17.90
2022-10-21T05:44:51.787Z,19.40
2022-10-21T05:45:53.156Z,18.70
2022-10-21T05:46:54.453Z,14.10
2022-10-21T05:47:55.811Z,21.60
2022-10-21T05:48:57.191Z,18.73
2022-10-21T05:49:58.598Z,19.00
2022-10-21T05:50:59.937Z,18.57
2022-10-21T05:52:02.351Z,16.57
2022-10-21T05:53:03.640Z,21.67
2022-10-21T05:54:05.421Z,14.93
2022-10-21T05:55:07.489Z,17.87
2022-10-21T05:56:08.907Z,21.10
2022-10-21T05:57:10.445Z,20.13
2022-10-21T05:58:11.805Z,16.67
2022-10-21T05:59:13.115Z,17.23
2022-10-21T06:00:14.592Z,15.33
2022-10-21T06:01:16.005Z,17.43
2022-10-21T06:02:17.457Z,19.03
2022-10-21T06:03:18.856Z,15.20
2022-10-21T06:04:20.237Z,16.87
2022-10-21T06:05:21.640Z,16.37
2022-10-21T06:06:22.938Z,17.47
2022-10-21T06:07:24.265Z,15.50
2022-10-21T06:08:26.013Z,16.27
2022-10-21T06:09:27.334Z,14.50
2022-10-21T06:10:29.267Z,17.97
2022-10-21T06:11:30.758Z,15.90
2022-10-21T06:12:32.036Z,18.17
2022-10-21T06:13:33.692Z,20.37
2022-10-21T06:14:36.269Z,18.00
2022-10-21T06:15:37.655Z,16.57
2022-10-21T06:16:38.972Z,15.27
2022-10-21T06:17:40.646Z,15.00
2022-10-21T06:18:43.556Z,16.53
2022-10-21T06:19:47.463Z,14.20
2022-10-21T06:20:51.563Z,15.73
2022-10-21T06:21:54.218Z,19.03
2022-10-21T06:22:55.609Z,21.33
2022-10-21T06:23:57.021Z,18.13
2022-10-21T06:24:58.419Z,19.13
2022-10-21T06:25:59.720Z,19.20
2022-10-21T06:27:01.051Z,13.30
2022-10-21T06:28:02.452Z,15.67
2022-10-21T06:29:03.913Z,19.40
2022-10-21T06:30:05.458Z,16.40
2022-10-21T06:31:07.795Z,15.03
2022-10-21T06:32:09.361Z,13.53
2022-10-21T06:33:10.666Z,19.27
2022-10-21T06:34:12.038Z,16.53
2022-10-21T06:35:13.437Z,15.77
2022-10-21T06:36:15.117Z,16.23
2022-10-21T06:37:16.431Z,15.30
2022-10-21T06:38:18.669Z,13.07
2022-10-21T06:39:20.031Z,16.83
2022-10-21T06:40:21.385Z,14.03
2022-10-21T06:41:22.749Z,17.50
2022-10-21T06:42:24.124Z,20.33
2022-10-21T06:43:26.144Z,20.87
2022-10-21T06:44:27.460Z,19.80
2022-10-21T06:45:28.764Z,15.33
2022-10-21T06:46:31.246Z,17.67
2022-10-21T06:47:32.689Z,20.00
2022-10-21T06:48:34.300Z,16.97
2022-10-21T06:49:35.650Z,17.67
2022-10-21T06:50:37.678Z,20.50
2022-10-21T06:51:39.016Z,15.30
2022-10-21T06:52:40.850Z,17.40
2022-10-21T06:53:42.791Z,16.53
2022-10-21T06:54:44.192Z,13.80
2022-10-21T06:55:45.512Z,20.70
2022-10-21T06:56:47.231Z,19.57
2022-10-21T06:57:48.553Z,14.87
2022-10-21T06:58:50.389Z,15.40
2022-10-21T06:59:51.750Z,13.73
2022-10-21T07:00:53.217Z,16.67
2022-10-21T07:02:00.092Z,15.43
2022-10-21T07:03:02.204Z,13.47
2022-10-21T07:04:04.473Z,15.30
2022-10-21T07:05:06.062Z,15.13
2022-10-21T07:06:07.475Z,15.50
2022-10-21T07:07:08.935Z,15.07
2022-10-21T07:08:12.106Z,13.93
2022-10-21T07:09:14.485Z,14.43
2022-10-21T07:10:15.996Z,17.03
2022-10-21T07:11:17.556Z,18.07
2022-10-21T07:12:19.417Z,16.40
2022-10-21T07:13:25.509Z,14.67
2022-10-21T07:14:27.366Z,19.00
2022-10-21T07:15:28.716Z,14.53
2022-10-21T07:16:33.041Z,16.10
2022-10-21T07:17:34.509Z,20.63
2022-10-21T07:18:39.179Z,16.67
2022-10-21T07:19:41.974Z,18.93
2022-10-21T07:20:43.347Z,14.50
2022-10-21T07:21:45.006Z,19.03
2022-10-21T07:22:46.320Z,21.03
2022-10-21T07:23:49.163Z,18.57
2022-10-21T07:24:51.584Z,18.80
2022-10-21T07:25:53.216Z,18.63
2022-10-21T07:26:54.885Z,16.70
2022-10-21T07:27:56.272Z,21.20
2022-10-21T07:28:58.847Z,20.33
2022-10-21T07:30:00.598Z,17.43
2022-10-21T07:31:03.679Z,19.27
2022-10-21T07:32:05.219Z,19.97
2022-10-21T07:33:15.192Z,15.20
2022-10-21T07:34:22.829Z,17.13
2022-10-21T07:35:27.041Z,16.13
2022-10-21T07:36:29.666Z,20.30
2022-10-21T07:37:30.998Z,17.90
2022-10-21T07:38:32.606Z,17.97
2022-10-21T07:39:37.058Z,16.77
2022-10-21T07:40:39.340Z,13.90
2022-10-21T07:41:44.908Z,18.10
2022-10-21T07:42:46.237Z,16.87
2022-10-21T07:43:47.934Z,19.07
2022-10-21T07:44:50.010Z,20.67
2022-10-21T07:45:51.319Z,15.00
2022-10-21T07:46:52.884Z,14.83
2022-10-21T07:47:54.293Z,16.10
2022-10-21T07:48:56.354Z,16.17
2022-10-21T07:50:03.801Z,16.53
2022-10-21T07:51:06.376Z,17.10
2022-10-21T07:52:10.413Z,15.73
2022-10-21T07:53:12.948Z,20.90
2022-10-21T07:54:14.752Z,17.97
2022-10-21T07:55:17.173Z,15.87
2022-10-21T07:56:20.074Z,15.20
2022-10-21T07:57:21.417Z,16.57
2022-10-21T07:58:22.722Z,16.27
2022-10-21T07:59:24.073Z,15.57
2022-10-21T08:00:25.376Z,16.37
2022-10-21T08:01:27.178Z,16.27
2022-10-21T08:02:28.574Z,14.13
2022-10-21T08:03:29.985Z,15.13
2022-10-21T08:04:33.220Z,15.87
2022-10-21T08:05:34.520Z,17.67
2022-10-21T08:06:35.896Z,16.40
2022-10-21T08:07:37.253Z,14.53
2022-10-21T08:08:39.121Z,15.17
2022-10-21T08:09:40.437Z,16.07
2022-10-21T08:10:41.775Z,15.13
2022-10-21T08:11:43.421Z,13.47
2022-10-21T08:12:44.762Z,17.30
2022-10-21T08:13:46.096Z,17.40
2022-10-21T08:14:47.397Z,16.23
2022-10-21T08:15:53.204Z,18.57
2022-10-21T08:16:55.028Z,14.27
2022-10-21T08:17:56.343Z,15.40
2022-10-21T08:18:59.368Z,15.97
2022-10-21T08:20:00.749Z,15.30
2022-10-21T08:21:02.660Z,17.37
2022-10-21T08:22:04.224Z,15.43
2022-10-21T08:23:05.715Z,17.67
2022-10-21T08:24:07.096Z,17.80
2022-10-21T08:25:08.505Z,16.20
2022-10-21T08:26:11.533Z,20.37
2022-10-21T08:27:12.956Z,14.33
2022-10-21T08:28:14.383Z,19.07
2022-10-21T08:29:15.940Z,15.37
2022-10-21T08:30:17.333Z,19.13
2022-10-21T08:31:20.432Z,16.40
2022-10-21T08:32:21.764Z,18.17
2022-10-21T08:33:23.088Z,17.77
2022-10-21T08:34:24.409Z,15.27
2022-10-21T08:35:26.570Z,16.23
2022-10-21T08:36:27.895Z,17.37
2022-10-21T08:37:29.193Z,17.03
2022-10-21T08:38:30.551Z,16.00
2022-10-21T08:39:31.849Z,17.07
2022-10-21T08:40:41.295Z,18.83
2022-10-21T08:41:42.591Z,14.43
2022-10-21T08:42:45.635Z,19.03
2022-10-21T08:43:47.358Z,18.87
2022-10-21T08:44:57.875Z,15.43
2022-10-21T08:46:19.474Z,14.97
2022-10-21T08:47:24.840Z,17.47
2022-10-21T08:48:31.434Z,17.20
2022-10-21T08:49:42.512Z,16.40
2022-10-21T08:50:46.562Z,14.33
2022-10-21T08:51:51.294Z,21.77
2022-10-21T08:53:06.883Z,21.27
2022-10-21T08:54:26.837Z,17.67
2022-10-21T08:55:35.920Z,17.73
2022-10-21T08:56:37.202Z,16.17
2022-10-21T08:57:38.848Z,15.37
2022-10-21T08:58:40.702Z,19.10
2022-10-21T08:59:42.698Z,15.17
2022-10-21T09:00:43.991Z,17.80
2022-10-21T09:01:59.328Z,17.67
2022-10-21T09:03:00.837Z,15.87
2022-10-21T09:04:18.603Z,16.33
2022-10-21T09:05:33.727Z,17.83
2022-10-21T09:06:40.995Z,15.57
2022-10-21T09:07:58.239Z,14.80
2022-10-21T09:09:00.001Z,16.93
2022-10-21T09:10:05.273Z,18.70
2022-10-21T09:11:14.135Z,22.47
2022-10-21T09:12:30.171Z,12.67
2022-10-21T09:13:51.417Z,14.47
2022-10-21T09:15:11.895Z,15.97
2022-10-21T09:16:20.041Z,16.97
2022-10-21T09:17:21.379Z,18.03
2022-10-21T09:18:33.958Z,17.23
2022-10-21T09:19:47.459Z,16.73
2022-10-21T09:21:01.798Z,16.93
2022-10-21T09:22:40.275Z,17.93
2022-10-21T09:23:52.786Z,16.23
2022-10-21T09:25:03.500Z,16.17
2022-10-21T09:26:16.397Z,17.37
2022-10-21T09:27:22.756Z,15.67
2022-10-21T09:28:33.807Z,18.50
2022-10-21T09:29:41.818Z,17.47
2022-10-21T09:30:46.311Z,13.73
2022-10-21T09:31:54.339Z,17.37
2022-10-21T09:32:59.218Z,16.03
2022-10-21T09:34:02.841Z,15.83
2022-10-21T09:35:16.762Z,20.63
2022-10-21T09:36:27.176Z,18.27
2022-10-21T09:37:35.815Z,18.20
2022-10-21T09:38:38.664Z,15.17
2022-10-21T09:39:42.572Z,15.87
2022-10-21T09:40:44.750Z,15.73
2022-10-21T09:41:49.595Z,17.13
2022-10-21T09:42:52.513Z,14.63
2022-10-21T09:43:56.070Z,13.87
2022-10-21T09:44:57.463Z,14.63
2022-10-21T09:45:58.901Z,15.67
2022-10-21T09:47:00.480Z,15.07
2022-10-21T09:48:07.370Z,15.47
2022-10-21T09:49:53.978Z,11.77
2022-10-21T09:50:38.506Z,14.57
2022-10-21T09:51:42.592Z,14.10
2022-10-21T09:52:47.299Z,15.10
2022-10-21T09:53:54.484Z,15.83
2022-10-21T09:54:56.817Z,11.67
2022-10-21T09:56:03.926Z,12.43
2022-10-21T09:57:08.191Z,11.57
2022-10-21T09:58:23.048Z,14.90
2022-10-21T09:59:30.342Z,10.13
2022-10-21T10:00:59.560Z,13.50
2022-10-21T10:02:06.961Z,13.13
2022-10-21T10:03:09.143Z,14.57
2022-10-21T10:04:22.383Z,11.13
2022-10-21T10:05:33.443Z,10.40
2022-10-21T10:06:34.895Z,12.63
2022-10-21T10:07:36.585Z,8.60
2022-10-21T10:08:42.329Z,11.53
2022-10-21T10:09:45.660Z,12.63
2022-10-21T10:10:47.423Z,11.77
2022-10-21T10:12:11.946Z,10.60
2022-10-21T10:13:17.748Z,11.90
2022-10-21T10:14:27.348Z,9.90
2022-10-21T10:15:36.283Z,9.83
2022-10-21T10:16:37.978Z,8.83
2022-10-21T10:17:39.962Z,11.13
2022-10-21T10:18:42.013Z,8.77
2022-10-21T10:19:43.382Z,10.77
2022-10-21T10:20:44.773Z,7.67
2022-10-21T10:21:48.171Z,11.97
2022-10-21T10:22:58.859Z,9.03
2022-10-21T10:24:01.279Z,10.40
2022-10-21T10:25:08.598Z,9.47
2022-10-21T10:26:10.615Z,10.47
2022-10-21T10:27:19.597Z,7.63
2022-10-21T10:28:24.146Z,8.77
2022-10-21T10:29:26.842Z,10.40
2022-10-21T10:30:36.223Z,10.37
2022-10-21T10:31:37.977Z,11.20
2022-10-21T10:32:39.969Z,12.57
2022-10-21T10:33:53.341Z,8.77
2022-10-21T10:34:58.438Z,11.53
2022-10-21T10:36:00.820Z,9.00
2022-10-21T10:37:15.938Z,10.40
2022-10-21T10:38:23.509Z,11.20
2022-10-21T10:39:28.480Z,10.50
2022-10-21T10:40:38.206Z,13.30
2022-10-21T10:41:41.205Z,8.80
2022-10-21T10:42:44.883Z,8.47
2022-10-21T10:43:47.883Z,7.97
2022-10-21T10:44:52.063Z,8.30
2022-10-21T10:45:53.485Z,9.03
2022-10-21T10:46:59.274Z,8.03
2022-10-21T10:48:03.998Z,7.20
2022-10-21T10:49:14.548Z,11.93
2022-10-21T10:50:34.888Z,8.27
2022-10-21T10:51:36.307Z,10.10
2022-10-21T10:52:38.043Z,10.40
2022-10-21T10:53:39.522Z,11.37
2022-10-21T10:54:42.327Z,10.30
2022-10-21T10:55:45.219Z,7.70
2022-10-21T10:56:46.847Z,9.83
2022-10-21T10:58:06.164Z,8.30
2022-10-21T10:59:15.432Z,6.73
2022-10-21T11:00:18.975Z,5.27
2022-10-21T11:01:27.108Z,8.73
2022-10-21T11:02:48.204Z,7.27
2022-10-21T11:03:55.640Z,8.90
2022-10-21T11:05:23.598Z,7.60
2022-10-21T11:06:33.964Z,5.03
2022-10-21T11:07:38.102Z,8.47
2022-10-21T11:08:43.104Z,5.37
2022-10-21T11:09:44.944Z,5.33
2022-10-21T11:10:47.735Z,7.10
2022-10-21T11:11:53.871Z,4.93
2022-10-21T11:12:55.395Z,4.83
2022-10-21T11:13:57.463Z,7.23
2022-10-21T11:14:59.660Z,5.27
2022-10-21T11:16:20.329Z,4.03
2022-10-21T11:17:26.429Z,9.27
2022-10-21T11:18:40.366Z,4.70
2022-10-21T11:19:50.624Z,5.07
2022-10-21T11:20:58.243Z,4.13
2022-10-21T11:22:13.748Z,5.93
2022-10-21T11:23:18.200Z,4.80
2022-10-21T11:24:27.489Z,6.50
2022-10-21T11:25:28.935Z,6.17
2022-10-21T11:26:45.795Z,5.70
2022-10-21T11:27:56.779Z,4.30
2022-10-21T11:29:04.727Z,3.93
2022-10-21T11:30:12.814Z,5.90
2022-10-21T11:31:17.290Z,5.70
2022-10-21T11:32:41.976Z,7.97
2022-10-21T11:33:48.318Z,4.23
2022-10-21T11:34:58.980Z,5.13
2022-10-21T11:36:20.324Z,7.93
2022-10-21T11:37:29.338Z,5.60
2022-10-21T11:38:45.085Z,5.27
2022-10-21T11:39:54.498Z,4.40
2022-10-21T11:40:55.815Z,5.13
2022-10-21T11:42:06.515Z,7.10
2022-10-21T11:43:19.899Z,5.83
2022-10-21T11:44:40.182Z,6.57
2022-10-21T11:45:49.452Z,8.27
2022-10-21T11:46:53.978Z,8.83
2022-10-21T11:47:58.814Z,10.37
2022-10-21T11:49:03.349Z,9.77
2022-10-21T11:51:34.555Z,5.53
2022-10-21T11:52:42.280Z,7.33
2022-10-21T11:53:49.832Z,7.50
2022-10-21T11:55:09.866Z,7.80
2022-10-21T11:56:50.755Z,9.17
2022-10-21T11:57:52.108Z,5.30
2022-10-21T11:58:53.544Z,6.77
2022-10-21T12:00:13.496Z,6.00
2022-10-21T12:01:29.978Z,6.33
2022-10-21T12:02:40.880Z,5.63
2022-10-21T12:03:45.368Z,6.10
2022-10-21T12:04:50.423Z,4.93
2022-10-21T12:06:02.235Z,5.47
2022-10-21T12:07:11.237Z,8.57
2022-10-21T12:08:27.631Z,7.77
2022-10-21T12:09:31.523Z,5.63
2022-10-21T12:10:51.534Z,5.57
2022-10-21T12:11:57.236Z,6.20
2022-10-21T12:13:01.623Z,6.73
2022-10-21T12:14:26.566Z,4.57
2022-10-21T12:15:39.339Z,6.10
2022-10-21T12:16:41.663Z,4.20
2022-10-21T12:17:45.267Z,4.27
2022-10-21T12:18:59.438Z,8.37
2022-10-21T12:20:07.197Z,4.87
2022-10-21T12:21:14.778Z,4.87
2022-10-21T12:22:16.601Z,5.70
2022-10-21T12:23:20.300Z,4.87
2022-10-21T12:24:28.234Z,5.00
2022-10-21T12:25:29.810Z,7.37
2022-10-21T12:26:31.362Z,9.77
2022-10-21T12:27:42.498Z,5.57
2022-10-21T12:28:56.526Z,6.37
2022-10-21T12:30:08.993Z,4.50
2022-10-21T12:31:19.648Z,6.97
2022-10-21T12:32:25.588Z,5.67
2022-10-21T12:33:27.504Z,9.03
2022-10-21T12:34:29.420Z,6.03
2022-10-21T12:36:00.447Z,5.20
2022-10-21T12:37:02.169Z,9.30
2022-10-21T12:38:05.658Z,6.70
2022-10-21T12:39:16.497Z,7.43
2022-10-21T12:40:38.451Z,6.97
2022-10-21T12:41:40.516Z,9.13
2022-10-21T12:42:44.864Z,8.67
2022-10-21T12:43:53.770Z,5.63
2022-10-21T12:44:55.348Z,8.07
2022-10-21T12:46:22.775Z,6.67
2022-10-21T12:47:34.845Z,6.90
2022-10-21T12:48:43.539Z,5.83
2022-10-21T12:49:45.882Z,6.97
2022-10-21T12:50:58.488Z,7.00
2022-10-21T12:52:03.115Z,8.03
2022-10-21T12:53:11.298Z,7.03
2022-10-21T12:54:14.955Z,5.93
2022-10-21T12:55:19.391Z,6.10
2022-10-21T12:56:29.239Z,5.57
2022-10-21T12:57:35.056Z,5.47
2022-10-21T12:58:41.580Z,5.37
2022-10-21T12:59:43.226Z,6.67
2022-10-21T13:00:44.751Z,5.70
2022-10-21T13:02:06.781Z,5.17
2022-10-21T13:03:09.966Z,6.47
2022-10-21T13:04:30.369Z,8.00
2022-10-21T13:05:37.693Z,5.80
2022-10-21T13:06:53.195Z,5.13
2022-10-21T13:08:14.731Z,9.50
2022-10-21T13:09:35.161Z,6.80
2022-10-21T13:10:36.745Z,5.00
2022-10-21T13:11:39.326Z,11.67
2022-10-21T13:12:41.013Z,6.87
2022-10-21T13:13:47.095Z,4.60
2022-10-21T13:14:48.621Z,7.87
2022-10-21T13:15:50.181Z,7.70
2022-10-21T13:16:51.760Z,6.50
2022-10-21T13:17:57.579Z,4.63
2022-10-21T13:19:25.331Z,5.03
2022-10-21T13:20:26.705Z,4.67
2022-10-21T13:21:43.169Z,4.67
2022-10-21T13:22:45.728Z,6.40
2022-10-21T13:23:49.168Z,4.70
2022-10-21T13:24:50.572Z,5.87
2022-10-21T13:26:06.595Z,4.97
2022-10-21T13:27:30.236Z,6.17
2022-10-21T13:28:37.701Z,6.20
2022-10-21T13:29:47.103Z,4.40
2022-10-21T13:30:48.388Z,6.70
2022-10-21T13:32:09.653Z,6.20
2022-10-21T13:33:19.234Z,5.40
2022-10-21T13:34:25.953Z,7.20
2022-10-21T13:35:29.999Z,5.83
2022-10-21T13:37:50.252Z,5.23
2022-10-21T13:38:52.731Z,5.77
2022-10-21T13:39:58.569Z,5.80
2022-10-21T13:41:01.961Z,4.77
2022-10-21T13:42:05.059Z,5.10
2022-10-21T13:43:11.475Z,5.50
2022-10-21T13:44:28.944Z,6.27
2022-10-21T13:45:32.928Z,4.17
2022-10-21T13:46:36.764Z,3.17
2022-10-21T13:47:40.914Z,5.43
2022-10-21T13:48:44.304Z,3.93
2022-10-21T13:49:53.245Z,3.57
2022-10-21T13:50:54.613Z,4.40
2022-10-21T13:51:56.176Z,4.60
2022-10-21T13:52:58.266Z,4.60
2022-10-21T13:54:03.459Z,7.90
2022-10-21T13:55:06.373Z,4.20
2022-10-21T13:56:08.617Z,4.17
2022-10-21T13:57:11.264Z,5.00
2022-10-21T13:58:15.569Z,3.13
2022-10-21T13:59:22.942Z,3.97
2022-10-21T14:00:26.399Z,5.03
2022-10-21T14:01:43.376Z,3.63
2022-10-21T14:02:52.233Z,3.90
2022-10-21T14:03:56.699Z,4.67
2022-10-21T14:05:05.069Z,5.07
2022-10-21T14:06:08.603Z,5.43